createdAt,value
2018-08-06T00:02:05.822Z,51.50
2018-08-06T00:04:33.043Z,51.90
2018-08-06T00:07:00.279Z,51.80
2018-08-06T00:09:27.469Z,51.90
2018-08-06T00:11:54.717Z,52.10
2018-08-06T00:14:21.884Z,52.10
2018-08-06T00:16:49.248Z,52.00
2018-08-06T00:19:16.465Z,52.00
2018-08-06T00:21:43.797Z,52.90
2018-08-06T00:24:11.143Z,53.50
2018-08-06T00:26:38.504Z,54.30
2018-08-06T00:29:05.658Z,55.20
2018-08-06T00:31:32.798Z,55.70
2018-08-06T00:33:59.993Z,55.90
2018-08-06T00:36:27.194Z,55.90
2018-08-06T00:38:54.379Z,55.80
2018-08-06T00:41:21.724Z,55.80
2018-08-06T00:43:48.903Z,56.10
2018-08-06T00:46:16.226Z,56.10
2018-08-06T00:48:43.439Z,56.40
2018-08-06T00:51:10.654Z,56.70
2018-08-06T00:53:37.891Z,56.30
2018-08-06T00:56:05.063Z,56.40
2018-08-06T00:58:32.269Z,55.90
2018-08-06T01:00:59.422Z,55.90
2018-08-06T01:03:26.603Z,56.00
2018-08-06T01:05:53.766Z,55.60
2018-08-06T01:08:20.919Z,55.60
2018-08-06T01:10:48.083Z,56.00
2018-08-06T01:13:15.335Z,55.80
2018-08-06T01:15:42.635Z,55.90
2018-08-06T01:18:10.059Z,55.70
2018-08-06T01:20:37.238Z,55.40
2018-08-06T01:23:04.381Z,55.40
2018-08-06T01:25:31.578Z,55.60
2018-08-06T01:27:58.740Z,55.80
2018-08-06T01:30:25.912Z,55.80
2018-08-06T01:32:53.111Z,55.30
2018-08-06T01:35:20.314Z,55.10
2018-08-06T01:37:47.485Z,55.60
2018-08-06T01:40:15.051Z,56.20
2018-08-06T01:42:42.424Z,56.00
2018-08-06T01:45:12.381Z,55.70
2018-08-06T01:47:39.584Z,55.70
2018-08-06T01:50:07.970Z,56.00
2018-08-06T01:52:35.109Z,55.80
2018-08-06T01:55:02.289Z,55.70
2018-08-06T01:57:29.433Z,55.70
2018-08-06T01:59:56.585Z,56.10
2018-08-06T02:02:23.769Z,55.90
2018-08-06T02:04:50.969Z,56.10
2018-08-06T02:07:18.157Z,56.00
2018-08-06T02:09:45.399Z,56.00
2018-08-06T02:12:12.661Z,56.20
2018-08-06T02:14:40.014Z,56.50
2018-08-06T02:17:07.177Z,56.80
2018-08-06T02:19:34.324Z,56.80
2018-08-06T02:22:01.463Z,56.80
2018-08-06T02:24:28.686Z,56.70
2018-08-06T02:26:55.849Z,57.00
2018-08-06T02:29:23.033Z,57.60
2018-08-06T02:31:50.180Z,57.20
2018-08-06T02:34:17.397Z,57.10
2018-08-06T02:36:44.584Z,57.70
2018-08-06T02:39:11.994Z,57.60
2018-08-06T02:41:39.601Z,57.40
2018-08-06T02:44:06.786Z,57.80
2018-08-06T02:46:34.073Z,58.00
2018-08-06T02:49:01.201Z,57.80
2018-08-06T02:51:28.373Z,58.20
2018-08-06T02:53:55.505Z,58.30
2018-08-06T02:56:22.610Z,58.50
2018-08-06T02:58:49.770Z,58.70
2018-08-06T03:01:16.997Z,58.80
2018-08-06T03:03:44.269Z,59.20
2018-08-06T03:06:11.668Z,59.60
2018-08-06T03:08:38.836Z,60.00
2018-08-06T03:11:05.995Z,59.50
2018-08-06T03:13:33.123Z,59.60
2018-08-06T03:16:00.255Z,59.80
2018-08-06T03:18:27.489Z,60.90
2018-08-06T03:20:54.681Z,60.40
2018-08-06T03:23:21.850Z,61.00
2018-08-06T03:25:49.057Z,61.10
2018-08-06T03:30:43.754Z,60.80
2018-08-06T03:33:11.069Z,61.10
2018-08-06T03:35:38.425Z,61.50
2018-08-06T03:38:05.642Z,61.50
2018-08-06T03:40:32.796Z,61.50
2018-08-06T03:42:59.956Z,62.00
2018-08-06T03:45:27.131Z,62.60
2018-08-06T03:47:54.249Z,63.10
2018-08-06T03:50:21.432Z,63.60
2018-08-06T03:52:48.630Z,63.70
2018-08-06T03:55:15.855Z,63.90
2018-08-06T03:57:43.052Z,63.90
2018-08-06T04:00:12.422Z,64.30
2018-08-06T04:02:39.966Z,64.80
2018-08-06T04:05:08.860Z,64.50
2018-08-06T04:07:36.260Z,65.00
2018-08-06T04:10:03.847Z,64.70
2018-08-06T04:12:30.995Z,65.00
2018-08-06T04:14:58.147Z,65.20
2018-08-06T04:17:25.261Z,65.20
2018-08-06T04:19:52.463Z,65.40
2018-08-06T04:22:19.633Z,65.60
2018-08-06T04:24:46.821Z,65.60
2018-08-06T04:27:13.989Z,66.00
2018-08-06T04:29:41.376Z,66.20
2018-08-06T04:32:08.651Z,66.30
2018-08-06T04:34:35.774Z,66.00
2018-08-06T04:37:02.962Z,66.30
2018-08-06T04:39:30.091Z,66.70
2018-08-06T04:41:57.271Z,65.50
2018-08-06T04:44:24.486Z,65.60
2018-08-06T04:46:51.688Z,66.20
2018-08-06T04:49:18.876Z,66.00
2018-08-06T04:51:46.170Z,66.30
2018-08-06T04:54:13.551Z,65.80
2018-08-06T04:56:40.951Z,65.00
2018-08-06T04:59:08.107Z,64.90
2018-08-06T05:01:35.212Z,64.80
2018-08-06T05:04:02.346Z,64.60
2018-08-06T05:06:29.463Z,63.60
2018-08-06T05:08:56.712Z,61.20
2018-08-06T05:11:23.835Z,59.40
2018-08-06T05:13:50.953Z,58.80
2018-08-06T05:16:18.170Z,57.90
2018-08-06T05:18:45.371Z,58.00
2018-08-06T05:21:12.528Z,54.90
2018-08-06T05:23:49.418Z,52.00
2018-08-06T05:26:16.751Z,50.20
2018-08-06T05:28:43.988Z,48.60
2018-08-06T05:31:11.231Z,44.00
2018-08-06T05:33:38.709Z,39.70
2018-08-06T05:36:05.882Z,37.60
2018-08-06T05:38:33.064Z,35.80
2018-08-06T05:41:00.211Z,34.10
2018-08-06T05:43:27.361Z,33.40
2018-08-06T05:45:54.520Z,32.20
2018-08-06T05:48:21.692Z,31.40
2018-08-06T05:50:48.830Z,30.80
2018-08-06T05:53:16.059Z,30.50
2018-08-06T05:55:43.389Z,29.80
2018-08-06T05:58:10.686Z,29.80
2018-08-06T06:00:37.845Z,29.10
2018-08-06T06:03:05.010Z,28.80
2018-08-06T06:05:32.178Z,29.20
2018-08-06T06:07:59.350Z,30.60
2018-08-06T06:10:26.715Z,29.90
2018-08-06T06:12:53.925Z,28.70
2018-08-06T06:15:21.221Z,27.90
2018-08-06T06:17:48.467Z,29.40
2018-08-06T06:20:15.709Z,29.30
2018-08-06T06:22:42.959Z,29.70
2018-08-06T06:25:11.654Z,29.10
2018-08-06T06:27:38.904Z,28.50
2018-08-06T06:30:07.753Z,28.10
2018-08-06T06:32:34.903Z,26.70
2018-08-06T06:35:02.051Z,26.40
2018-08-06T06:37:29.163Z,25.90
2018-08-06T06:39:56.301Z,26.90
2018-08-06T06:42:23.433Z,27.50
2018-08-06T06:44:50.629Z,27.10
2018-08-06T06:47:17.868Z,27.60
2018-08-06T06:49:45.084Z,27.60
2018-08-06T06:52:12.314Z,27.60
2018-08-06T06:54:39.662Z,27.20
2018-08-06T06:57:06.830Z,26.90
2018-08-06T06:59:33.999Z,26.80
2018-08-06T07:02:01.189Z,27.10
2018-08-06T07:04:28.438Z,27.40
2018-08-06T07:06:55.609Z,26.60
2018-08-06T07:09:22.759Z,26.10
2018-08-06T07:11:50.305Z,25.70
2018-08-06T07:14:17.621Z,27.30
2018-08-06T07:16:44.867Z,27.60
2018-08-06T07:19:12.118Z,27.40
2018-08-06T07:21:39.443Z,27.40
2018-08-06T07:24:06.631Z,26.10
2018-08-06T07:26:33.953Z,26.60
2018-08-06T07:29:01.166Z,27.60
2018-08-06T07:31:28.469Z,27.80
2018-08-06T07:33:55.633Z,26.70
2018-08-06T07:36:22.787Z,26.30
2018-08-06T07:38:50.009Z,25.90
2018-08-06T07:43:44.716Z,26.10
2018-08-06T07:46:12.013Z,25.70
2018-08-06T07:48:39.438Z,25.60
2018-08-06T07:51:06.618Z,24.80
2018-08-06T07:53:33.922Z,24.40
2018-08-06T07:56:01.130Z,23.30
2018-08-06T07:58:28.323Z,23.30
2018-08-06T08:00:55.477Z,23.00
2018-08-06T08:03:22.618Z,23.10
2018-08-06T08:05:49.813Z,23.10
2018-08-06T08:08:17.193Z,23.60
2018-08-06T08:10:44.431Z,24.30
2018-08-06T08:13:11.703Z,25.30
2018-08-06T08:15:39.628Z,25.90
2018-08-06T08:18:06.789Z,25.90
2018-08-06T08:20:33.966Z,25.70
2018-08-06T08:23:01.185Z,26.00
2018-08-06T08:25:28.376Z,26.50
2018-08-06T08:27:55.585Z,26.20
2018-08-06T08:30:22.763Z,26.70
2018-08-06T08:32:49.968Z,26.60
2018-08-06T08:37:44.693Z,25.80
2018-08-06T08:40:15.429Z,25.70
2018-08-06T08:42:43.132Z,26.60
2018-08-06T08:45:13.216Z,26.70
2018-08-06T08:47:41.416Z,26.80
2018-08-06T08:52:38.010Z,25.50
2018-08-06T08:55:05.417Z,24.60
2018-08-06T08:57:32.807Z,25.30
2018-08-06T08:59:59.960Z,25.30
2018-08-06T09:02:27.107Z,25.80
2018-08-06T09:04:54.244Z,26.60
2018-08-06T09:07:21.472Z,27.10
2018-08-06T09:09:48.893Z,27.90
2018-08-06T09:12:16.065Z,27.70
2018-08-06T09:14:43.481Z,27.70
2018-08-06T09:17:10.622Z,27.70
2018-08-06T09:19:37.746Z,27.70
2018-08-06T09:22:04.980Z,28.70
2018-08-06T09:24:32.154Z,29.30
2018-08-06T09:26:59.416Z,30.20
2018-08-06T09:29:26.605Z,31.60
2018-08-06T09:31:53.898Z,32.90
2018-08-06T09:34:21.049Z,33.30
2018-08-06T09:36:48.206Z,34.00
2018-08-06T09:39:15.333Z,34.90
2018-08-06T09:41:42.501Z,35.20
2018-08-06T09:44:09.669Z,35.80
2018-08-06T09:46:36.824Z,36.60
2018-08-06T09:49:04.619Z,36.60
2018-08-06T09:51:31.841Z,37.20
2018-08-06T09:53:59.040Z,38.10
2018-08-06T09:56:26.186Z,38.20
2018-08-06T09:58:53.361Z,38.90
2018-08-06T10:01:26.152Z,39.50
2018-08-06T10:03:53.304Z,39.20
2018-08-06T10:06:20.567Z,39.30
2018-08-06T10:08:47.666Z,38.90
2018-08-06T10:11:14.814Z,39.80
2018-08-06T10:13:41.989Z,39.90
2018-08-06T10:16:09.225Z,39.60
2018-08-06T10:18:36.381Z,39.50
2018-08-06T10:21:03.833Z,39.10
2018-08-06T10:23:31.060Z,39.40
2018-08-06T10:25:58.262Z,39.10
2018-08-06T10:28:25.438Z,39.50
2018-08-06T10:30:52.592Z,39.50
2018-08-06T10:33:19.889Z,39.30
2018-08-06T10:35:47.010Z,39.40
2018-08-06T10:38:14.148Z,39.40
2018-08-06T10:40:41.304Z,39.30
2018-08-06T10:43:08.468Z,40.00
2018-08-06T10:45:35.593Z,39.70
2018-08-06T10:48:02.804Z,39.30
2018-08-06T10:50:30.076Z,39.80
2018-08-06T10:52:57.267Z,39.50
2018-08-06T10:55:24.394Z,39.80
2018-08-06T10:57:51.541Z,40.00
2018-08-06T11:00:21.738Z,40.90
2018-08-06T11:02:49.141Z,40.40
2018-08-06T11:05:16.905Z,40.40
2018-08-06T11:07:44.075Z,40.10
2018-08-06T11:10:14.609Z,40.40
2018-08-06T11:12:41.778Z,39.50
2018-08-06T11:15:14.577Z,39.10
2018-08-06T11:17:41.749Z,39.10
2018-08-06T11:20:10.762Z,39.20
2018-08-06T11:22:38.201Z,39.10
2018-08-06T11:25:05.926Z,39.10
2018-08-06T11:27:33.485Z,38.90
2018-08-06T11:30:00.844Z,39.20
2018-08-06T11:32:35.047Z,38.50
2018-08-06T11:35:03.154Z,38.90
2018-08-06T11:37:30.381Z,39.20
2018-08-06T11:39:57.633Z,39.40
2018-08-06T11:42:24.777Z,39.30
2018-08-06T11:47:19.057Z,39.20
2018-08-06T11:49:46.197Z,39.30
2018-08-06T11:52:13.354Z,39.20
2018-08-06T11:54:40.502Z,39.10
2018-08-06T11:57:07.789Z,39.10
2018-08-06T11:59:35.089Z,39.30
2018-08-06T12:02:02.633Z,39.30
2018-08-06T12:04:30.013Z,38.50
2018-08-06T12:06:57.417Z,38.40
2018-08-06T12:09:24.592Z,38.80
2018-08-06T12:11:51.725Z,38.90
2018-08-06T12:14:18.890Z,38.80
2018-08-06T12:16:46.019Z,38.60
2018-08-06T12:19:13.158Z,38.70
2018-08-06T12:21:40.309Z,38.60
2018-08-06T12:24:07.461Z,38.20
2018-08-06T12:26:34.658Z,38.30
2018-08-06T12:29:01.876Z,38.60
2018-08-06T12:31:29.192Z,38.70
2018-08-06T12:33:56.560Z,38.30
2018-08-06T12:36:23.741Z,38.30
2018-08-06T12:39:06.300Z,37.90
2018-08-06T12:41:33.459Z,37.90
2018-08-06T12:44:00.701Z,37.90
2018-08-06T12:46:28.059Z,37.80
2018-08-06T12:48:55.233Z,38.00
2018-08-06T12:51:22.589Z,38.30
2018-08-06T12:53:49.738Z,38.50
2018-08-06T12:56:16.911Z,38.00
2018-08-06T12:58:44.095Z,37.80
2018-08-06T13:01:11.277Z,37.30
2018-08-06T13:03:38.457Z,37.60
2018-08-06T13:08:32.925Z,37.80
2018-08-06T13:11:00.178Z,37.60
2018-08-06T13:13:27.431Z,37.30
2018-08-06T13:15:54.585Z,37.70
2018-08-06T13:18:21.740Z,37.80
2018-08-06T13:20:48.898Z,38.20
2018-08-06T13:23:16.117Z,37.90
2018-08-06T13:25:43.291Z,37.80
2018-08-06T13:28:10.426Z,37.70
2018-08-06T13:30:37.574Z,37.80
2018-08-06T13:33:04.950Z,37.80
2018-08-06T13:35:32.224Z,37.70
2018-08-06T13:37:59.479Z,37.50
2018-08-06T13:40:26.665Z,37.70
2018-08-06T13:42:53.765Z,37.70
2018-08-06T13:45:20.920Z,37.80
2018-08-06T13:47:48.045Z,38.30
2018-08-06T13:50:15.218Z,37.90
2018-08-06T13:52:42.377Z,38.00
2018-08-06T13:55:10.875Z,38.00
2018-08-06T13:57:38.270Z,37.90
2018-08-06T14:00:08.670Z,37.80
2018-08-06T14:02:35.934Z,37.80
2018-08-06T14:05:03.413Z,37.80
2018-08-06T14:07:30.646Z,37.60
2018-08-06T14:12:25.058Z,37.60
2018-08-06T14:14:52.193Z,37.40
2018-08-06T14:17:19.384Z,37.30
2018-08-06T14:19:46.564Z,37.50
2018-08-06T14:22:13.766Z,37.70
2018-08-06T14:24:40.931Z,37.60
2018-08-06T14:27:08.090Z,37.60
2018-08-06T14:29:35.257Z,37.30
2018-08-06T14:32:02.499Z,36.90
2018-08-06T14:34:29.695Z,37.30
2018-08-06T14:36:57.302Z,37.40
2018-08-06T14:39:24.451Z,37.40
2018-08-06T14:41:51.579Z,37.50
2018-08-06T14:44:18.706Z,37.50
2018-08-06T14:46:45.860Z,37.40
2018-08-06T14:49:13.038Z,37.70
2018-08-06T14:51:40.166Z,37.90
2018-08-06T14:54:07.329Z,38.20
2018-08-06T14:56:34.494Z,37.60
2018-08-06T14:59:01.855Z,37.50
2018-08-06T15:01:29.195Z,37.10
2018-08-06T15:03:56.348Z,37.10
2018-08-06T15:06:23.497Z,37.10
2018-08-06T15:08:50.806Z,37.20
2018-08-06T15:11:17.934Z,37.40
2018-08-06T15:13:45.054Z,37.20
2018-08-06T15:16:12.257Z,37.20
2018-08-06T15:18:39.370Z,37.00
2018-08-06T15:21:06.729Z,36.90
2018-08-06T15:23:33.938Z,36.40
2018-08-06T15:28:28.404Z,36.90
2018-08-06T15:30:55.589Z,36.80
2018-08-06T15:33:22.744Z,37.10
2018-08-06T15:35:49.915Z,37.30
2018-08-06T15:38:17.043Z,37.30
2018-08-06T15:40:44.197Z,36.90
2018-08-06T15:43:11.351Z,37.00
2018-08-06T15:45:38.506Z,37.20
2018-08-06T15:48:06.069Z,37.30
2018-08-06T15:50:33.451Z,36.70
2018-08-06T15:55:28.071Z,36.80
2018-08-06T16:00:22.434Z,36.20
2018-08-06T16:02:49.623Z,36.50
2018-08-06T16:05:16.775Z,36.40
2018-08-06T16:07:44.250Z,36.30
2018-08-06T16:10:12.241Z,36.10
2018-08-06T16:12:39.601Z,35.00
2018-08-06T16:15:08.597Z,35.20
2018-08-06T16:17:36.246Z,35.40
2018-08-06T16:20:05.457Z,35.40
2018-08-06T16:22:32.752Z,35.50
2018-08-06T16:24:59.951Z,35.10
2018-08-06T16:27:27.136Z,35.10
2018-08-06T16:29:54.293Z,35.50
2018-08-06T16:32:21.432Z,35.60
2018-08-06T16:34:48.590Z,35.40
2018-08-06T16:37:15.833Z,35.40
2018-08-06T16:39:42.966Z,35.00
2018-08-06T16:42:10.101Z,35.60
2018-08-06T16:44:37.285Z,35.30
2018-08-06T16:47:04.456Z,35.80
2018-08-06T16:49:32.020Z,36.50
2018-08-06T16:51:59.280Z,36.20
2018-08-06T16:54:26.439Z,37.20
2018-08-06T16:56:53.600Z,35.40
2018-08-06T16:59:20.744Z,36.40
2018-08-06T17:01:47.861Z,36.10
2018-08-06T17:04:14.989Z,35.90
2018-08-06T17:06:42.151Z,35.90
2018-08-06T17:09:09.541Z,36.50
2018-08-06T17:11:36.738Z,37.70
2018-08-06T17:14:04.373Z,37.80
2018-08-06T17:16:31.660Z,37.60
2018-08-06T17:18:58.833Z,36.70
2018-08-06T17:21:25.993Z,37.50
2018-08-06T17:23:53.142Z,37.20
2018-08-06T17:26:20.303Z,37.70
2018-08-06T17:28:47.444Z,38.00
2018-08-06T17:31:14.597Z,38.80
2018-08-06T17:36:08.888Z,38.30
2018-08-06T17:38:36.211Z,38.30
2018-08-06T17:41:03.443Z,38.70
2018-08-06T17:43:30.633Z,37.90
2018-08-06T17:45:57.901Z,38.60
2018-08-06T17:48:25.014Z,38.40
2018-08-06T17:50:52.113Z,39.20
2018-08-06T17:53:19.294Z,38.80
2018-08-06T17:55:46.439Z,38.90
2018-08-06T17:58:13.582Z,39.30
2018-08-06T18:00:40.712Z,39.10
2018-08-06T18:03:07.854Z,39.90
2018-08-06T18:05:35.101Z,40.90
2018-08-06T18:10:30.032Z,40.80
2018-08-06T18:12:57.248Z,40.60
2018-08-06T18:15:24.366Z,41.20
2018-08-06T18:17:51.508Z,41.50
2018-08-06T18:20:19.033Z,42.40
2018-08-06T18:22:46.290Z,42.60
2018-08-06T18:25:15.039Z,43.00
2018-08-06T18:27:42.861Z,43.50
2018-08-06T18:30:13.366Z,44.10
2018-08-06T18:32:40.577Z,44.50
2018-08-06T18:35:09.206Z,44.20
2018-08-06T18:37:36.358Z,45.10
2018-08-06T18:40:04.057Z,45.20
2018-08-06T18:42:31.217Z,45.60
2018-08-06T18:44:58.512Z,46.90
2018-08-06T18:47:25.645Z,47.50
2018-08-06T18:49:52.817Z,47.50
2018-08-06T18:52:19.971Z,47.60
2018-08-06T18:54:47.130Z,47.90
2018-08-06T18:57:14.258Z,48.50
2018-08-06T18:59:41.450Z,48.10
2018-08-06T19:02:08.605Z,48.80
2018-08-06T19:04:35.951Z,49.30
2018-08-06T19:07:03.334Z,49.50
2018-08-06T19:09:30.618Z,49.50
2018-08-06T19:12:03.761Z,49.70
2018-08-06T19:14:31.257Z,50.00
2018-08-06T19:16:58.530Z,50.20
2018-08-06T19:19:27.298Z,50.90
2018-08-06T19:21:55.325Z,51.40
2018-08-06T19:24:28.193Z,51.60
2018-08-06T19:26:55.416Z,51.60
2018-08-06T19:29:22.993Z,51.90
2018-08-06T19:31:50.126Z,52.00
2018-08-06T19:34:17.232Z,51.80
2018-08-06T19:36:50.313Z,52.00
2018-08-06T19:39:17.551Z,52.50
2018-08-06T19:41:45.113Z,52.80
2018-08-06T19:44:12.287Z,53.30
2018-08-06T19:46:39.420Z,54.00
2018-08-06T19:49:12.502Z,53.90
2018-08-06T19:51:39.838Z,53.70
2018-08-06T19:54:07.026Z,53.10
2018-08-06T19:56:34.157Z,53.10
2018-08-06T19:59:01.344Z,53.50
2018-08-06T20:01:28.780Z,53.80
2018-08-06T20:03:56.026Z,54.10
2018-08-06T20:06:23.157Z,54.30
2018-08-06T20:08:50.566Z,54.50
2018-08-06T20:11:17.842Z,54.80
2018-08-06T20:13:45.002Z,54.90
2018-08-06T20:16:12.189Z,55.00
2018-08-06T20:18:39.323Z,55.00
2018-08-06T20:21:06.478Z,55.00
2018-08-06T20:23:33.672Z,54.70
2018-08-06T20:26:00.857Z,54.80
2018-08-06T20:28:28.101Z,54.60
2018-08-06T20:30:55.345Z,54.50
2018-08-06T20:33:22.623Z,54.80
2018-08-06T20:35:49.750Z,54.70
2018-08-06T20:38:16.877Z,55.10
2018-08-06T20:40:44.021Z,55.20
2018-08-06T20:43:11.222Z,55.30
2018-08-06T20:45:38.377Z,55.50
2018-08-06T20:48:05.837Z,55.90
2018-08-06T20:50:33.085Z,56.00
2018-08-06T20:53:00.329Z,56.40
2018-08-06T20:55:27.831Z,56.50
2018-08-06T20:57:55.002Z,56.80
2018-08-06T21:00:24.064Z,56.60
2018-08-06T21:02:51.496Z,56.40
2018-08-06T21:05:18.917Z,56.50
2018-08-06T21:07:46.117Z,56.20
2018-08-06T21:10:14.457Z,55.80
2018-08-06T21:15:10.017Z,55.40
2018-08-06T21:17:37.373Z,54.60
2018-08-06T21:20:06.349Z,53.70
2018-08-06T21:22:33.456Z,53.20
2018-08-06T21:25:00.578Z,53.10
2018-08-06T21:29:54.926Z,53.10
2018-08-06T21:32:22.093Z,52.90
2018-08-06T21:34:49.211Z,53.10
2018-08-06T21:37:16.400Z,53.60
2018-08-06T21:39:43.620Z,55.00
2018-08-06T21:42:10.796Z,55.40
2018-08-06T21:44:37.968Z,54.60
2018-08-06T21:47:05.089Z,55.00
2018-08-06T21:49:32.254Z,56.30
2018-08-06T21:51:59.424Z,56.50
2018-08-06T21:54:26.568Z,56.70
2018-08-06T21:56:53.689Z,56.80
2018-08-06T21:59:20.809Z,56.00
2018-08-06T22:01:47.992Z,56.40
2018-08-06T22:04:15.197Z,54.30
2018-08-06T22:06:42.409Z,55.30
2018-08-06T22:09:11.777Z,56.00
2018-08-06T22:11:38.969Z,55.80
2018-08-06T22:14:06.945Z,56.30
2018-08-06T22:16:34.313Z,56.60
2018-08-06T22:19:01.524Z,56.80
2018-08-06T22:21:28.601Z,56.60
2018-08-06T22:23:55.725Z,56.50
2018-08-06T22:26:22.885Z,56.70
2018-08-06T22:28:50.146Z,57.00
2018-08-06T22:31:17.383Z,57.40
2018-08-06T22:33:44.607Z,57.40
2018-08-06T22:36:11.809Z,57.40
2018-08-06T22:38:38.945Z,57.80
2018-08-06T22:43:33.285Z,58.00
2018-08-06T22:48:27.545Z,57.60
2018-08-06T22:50:54.696Z,57.70
2018-08-06T22:53:21.860Z,58.10
2018-08-06T22:55:59.573Z,57.90
2018-08-06T22:58:26.714Z,57.90
2018-08-06T23:00:53.846Z,57.90
2018-08-06T23:03:20.976Z,57.40
2018-08-06T23:05:48.156Z,57.60
2018-08-06T23:08:15.403Z,58.00
2018-08-06T23:10:42.821Z,58.20
2018-08-06T23:13:09.969Z,58.80
2018-08-06T23:15:37.073Z,59.60
2018-08-06T23:18:04.860Z,59.70
2018-08-06T23:20:31.997Z,60.10
2018-08-06T23:22:59.111Z,60.60
2018-08-06T23:25:26.243Z,60.80
2018-08-06T23:27:53.381Z,60.90
2018-08-06T23:30:20.558Z,61.20
2018-08-06T23:32:47.705Z,61.20
2018-08-06T23:35:14.946Z,61.30
2018-08-06T23:37:43.221Z,61.90
2018-08-06T23:40:11.527Z,61.90
2018-08-06T23:42:40.401Z,60.50
2018-08-06T23:45:09.185Z,60.20
2018-08-06T23:47:37.209Z,60.00
2018-08-06T23:50:05.574Z,59.80
2018-08-06T23:52:32.729Z,59.50
2018-08-06T23:54:59.845Z,59.50
2018-08-06T23:57:26.953Z,59.80
2018-08-06T23:59:54.101Z,60.40
